Time;durP1;ratioP1;P1;durP2;ratioP2;P2;SDS_P1;SDS_P2;PMS_P1;PMS_P2;Temp;Humidity;BMP_temperature;BMP_pressure;BME280_temperature;BME280_humidity;BME280_pressure;Samples;Min_cycle;Max_cycle;Signal;HPM_P1;HPM_P2
2020/12/05 00:00:26;;;;;;;21.15;11.38;;;;;;;5.95;73.80;101515.06;1771273;80;21155;-57
2020/12/05 00:02:54;;;;;;;18.45;11.35;;;;;;;5.93;73.71;101518.97;1775866;80;21102;-57
2020/12/05 00:05:21;;;;;;;15.78;10.55;;;;;;;5.91;73.76;101524.98;1783825;79;21525;-57
2020/12/05 00:07:48;;;;;;;20.55;10.68;;;;;;;5.92;73.63;101526.34;1759611;80;23381;-56
2020/12/05 00:10:16;;;;;;;17.73;11.18;;;;;;;5.93;73.62;101521.98;1766272;80;21681;-57
2020/12/05 00:12:44;;;;;;;22.65;10.63;;;;;;;5.79;73.96;101528.17;1791815;79;21177;-57
2020/12/05 00:15:12;;;;;;;12.90;9.08;;;;;;;5.73;74.03;101529.31;1769948;79;21931;-57
2020/12/05 00:17:39;;;;;;;17.55;10.53;;;;;;;5.73;74.01;101535.44;1769831;79;21511;-57
2020/12/05 00:20:07;;;;;;;17.15;10.30;;;;;;;5.71;74.01;101546.27;1769991;79;22151;-58
2020/12/05 00:22:35;;;;;;;21.70;10.75;;;;;;;5.71;74.04;101546.27;1771157;79;21667;-57
2020/12/05 00:25:03;;;;;;;19.02;11.22;;;;;;;5.71;74.05;101551.49;1769893;79;21609;-57
2020/12/05 00:27:30;;;;;;;18.45;11.60;;;;;;;5.72;74.02;101556.28;1769928;79;21536;-57
2020/12/05 00:29:58;;;;;;;16.62;10.05;;;;;;;5.74;73.94;101562.00;1773629;79;21615;-58
2020/12/05 00:32:28;;;;;;;14.65;10.40;;;;;;;5.76;73.79;101567.28;1783735;80;21145;-57
2020/12/05 00:34:56;;;;;;;19.32;10.48;;;;;;;5.72;73.85;101566.73;1786544;80;21576;-57
2020/12/05 00:37:25;;;;;;;19.23;9.95;;;;;;;5.66;73.97;101576.61;1764677;79;21533;-63
2020/12/05 00:39:53;;;;;;;13.88;9.83;;;;;;;5.70;73.81;101574.54;1731330;81;21668;-63
2020/12/05 00:42:20;;;;;;;17.27;11.25;;;;;;;5.70;73.83;101566.70;1761756;80;21594;-63
2020/12/05 00:44:48;;;;;;;15.45;9.78;;;;;;;5.70;73.76;101569.72;1761761;81;23603;-63
2020/12/05 00:47:16;;;;;;;16.67;10.05;;;;;;;5.68;73.77;101562.27;1767046;80;21875;-63
2020/12/05 00:49:45;;;;;;;14.68;9.43;;;;;;;5.62;73.71;101566.48;1763217;80;21160;-63
2020/12/05 00:52:12;;;;;;;18.60;10.13;;;;;;;5.61;73.68;101573.84;1747753;80;22061;-63
2020/12/05 00:54:40;;;;;;;15.18;9.90;;;;;;;5.57;73.68;101563.29;1777662;80;21533;-63
2020/12/05 00:57:08;;;;;;;15.95;9.15;;;;;;;5.56;73.73;101560.21;1776574;79;21194;-63
2020/12/05 00:59:36;;;;;;;15.32;10.23;;;;;;;5.53;73.71;101559.69;1787704;79;21900;-63
2020/12/05 01:02:03;;;;;;;17.10;9.85;;;;;;;5.52;73.80;101563.14;1783378;79;21471;-63
2020/12/05 01:04:31;;;;;;;15.38;10.23;;;;;;;5.49;73.78;101561.78;1784558;79;21993;-63
2020/12/05 01:06:59;;;;;;;15.48;9.90;;;;;;;5.48;73.77;101563.49;1783326;79;21129;-63
2020/12/05 01:09:28;;;;;;;14.95;8.78;;;;;;;5.48;73.72;101561.31;1789845;79;21136;-63
2020/12/05 01:11:56;;;;;;;14.45;9.43;;;;;;;5.48;73.70;101562.63;1783272;80;21171;-63
2020/12/05 01:14:23;;;;;;;16.02;9.78;;;;;;;5.46;73.78;101559.08;1800373;79;21522;-63
2020/12/05 01:16:51;;;;;;;14.60;8.70;;;;;;;5.44;73.71;101555.55;1783875;79;21988;-63
2020/12/05 01:19:18;;;;;;;12.20;8.50;;;;;;;5.40;73.74;101554.55;1784042;79;21589;-63
2020/12/05 01:21:46;;;;;;;16.05;8.50;;;;;;;5.51;73.34;101558.80;1783537;79;22507;-63
2020/12/05 01:24:14;;;;;;;14.70;8.98;;;;;;;5.49;73.33;101552.20;1785065;79;21790;-63
2020/12/05 01:26:41;;;;;;;17.57;8.88;;;;;;;5.50;73.24;101551.36;1784684;79;21489;-63
2020/12/05 01:29:09;;;;;;;13.75;8.60;;;;;;;5.49;73.20;101551.34;1786438;79;21824;-63
2020/12/05 01:31:36;;;;;;;18.23;10.32;;;;;;;5.38;73.47;101544.92;1784917;80;21603;-62
2020/12/05 01:34:05;;;;;;;16.52;9.48;;;;;;;5.34;73.58;101539.62;1789214;78;21831;-63
2020/12/05 01:36:33;;;;;;;13.48;8.68;;;;;;;5.33;73.61;101550.00;1790498;78;21094;-63
2020/12/05 01:39:01;;;;;;;12.68;8.83;;;;;;;5.34;73.50;101553.08;1789134;78;21608;-64
2020/12/05 01:41:29;;;;;;;14.40;8.88;;;;;;;5.34;73.32;101553.08;1791088;78;21502;-63
2020/12/05 01:43:56;;;;;;;17.27;8.85;;;;;;;5.25;73.50;101545.00;1790279;78;21118;-63
2020/12/05 01:46:39;;;;;;;12.95;8.75;;;;;;;5.26;73.32;101541.55;1789111;78;23572;-63
2020/12/05 01:49:14;;;;;;;13.35;8.38;;;;;;;5.24;73.44;101541.94;1789137;78;21166;-64
2020/12/05 01:51:41;;;;;;;14.73;8.35;;;;;;;5.23;73.40;101543.64;1789775;78;21462;-63
2020/12/05 01:54:09;;;;;;;14.73;8.90;;;;;;;5.27;73.41;101544.63;1790418;78;21624;-62
2020/12/05 01:56:38;;;;;;;17.37;9.48;;;;;;;5.30;73.28;101545.59;1789193;78;21111;-63
2020/12/05 01:59:06;;;;;;;15.05;9.33;;;;;;;5.32;73.24;101550.84;1787938;78;22262;-63
2020/12/05 02:01:33;;;;;;;16.30;9.50;;;;;;;5.34;73.23;101551.77;1789089;78;21103;-63
2020/12/05 02:04:02;;;;;;;14.18;9.83;;;;;;;5.34;73.14;101556.98;1798791;78;21101;-63
2020/12/05 02:06:56;;;;;;;15.43;9.25;;;;;;;5.31;73.17;101561.72;1791040;78;21752;-63
2020/12/05 02:09:30;;;;;;;14.47;8.63;;;;;;;5.30;73.15;101561.69;1775007;78;21498;-63
2020/12/05 02:12:18;;;;;;;14.23;9.03;;;;;;;5.25;73.27;101561.54;1768946;80;21469;-63
2020/12/05 02:14:46;;;;;;;17.85;10.70;;;;;;;5.25;73.36;101560.23;1772706;79;22095;-63
2020/12/05 02:17:14;;;;;;;18.45;10.35;;;;;;;5.21;73.40;101568.41;1778206;79;21498;-63
2020/12/05 02:19:50;;;;;;;16.03;10.07;;;;;;;5.21;73.44;101567.11;1773158;79;21133;-63
2020/12/05 02:22:33;;;;;;;17.70;10.25;;;;;;;5.19;73.41;101563.97;1774454;79;21825;-63
2020/12/05 02:25:01;;;;;;;15.05;9.13;;;;;;;5.21;73.39;101569.72;1772876;79;21148;-63
2020/12/05 02:27:32;;;;;;;14.95;9.98;;;;;;;5.24;73.33;101564.98;1778253;79;21929;-63
2020/12/05 02:30:00;;;;;;;15.40;9.18;;;;;;;5.27;73.25;101564.21;1809642;78;21168;-63
2020/12/05 02:32:27;;;;;;;16.20;9.70;;;;;;;5.29;73.04;101567.31;1787857;80;21149;-63
2020/12/05 02:34:54;;;;;;;15.00;9.13;;;;;;;5.34;72.87;101572.66;1784496;79;21585;-63
2020/12/05 02:37:25;;;;;;;16.95;10.40;;;;;;;5.28;73.07;101573.81;1793847;79;21205;-57
2020/12/05 02:39:52;;;;;;;21.57;11.12;;;;;;;5.34;72.82;101570.95;1774121;79;21133;-57
2020/12/05 02:42:19;;;;;;;15.65;9.85;;;;;;;5.30;72.96;101575.61;1747119;80;21491;-57
2020/12/05 02:44:50;;;;;;;16.95;10.88;;;;;;;5.28;73.09;101577.73;1774616;79;21144;-57
2020/12/05 02:47:18;;;;;;;19.40;10.25;;;;;;;5.24;73.15;101580.66;1773697;79;21150;-57
2020/12/05 02:49:46;;;;;;;21.05;10.43;;;;;;;5.24;73.15;101579.34;1785591;79;22793;-58
2020/12/05 02:52:14;;;;;;;18.20;10.72;;;;;;;5.28;73.14;101587.73;1783189;79;21498;-57
2020/12/05 02:54:43;;;;;;;14.90;7.45;;;;;;;5.28;73.10;101582.52;1782264;80;21098;-63
2020/12/05 02:57:11;;;;;;;20.17;10.53;;;;;;;5.25;73.27;101587.64;1773925;79;21543;-63
2020/12/05 02:59:39;;;;;;;17.73;10.32;;;;;;;5.17;73.41;101590.05;1779736;79;21152;-63
2020/12/05 03:02:06;;;;;;;19.90;10.15;;;;;;;5.10;73.61;101585.47;1823107;77;21323;-63
2020/12/05 03:04:34;;;;;;;19.17;11.22;;;;;;;5.10;73.68;101588.08;1840730;77;21523;-63
2020/12/05 03:07:05;;;;;;;19.42;11.73;;;;;;;5.10;73.73;101595.02;1831550;77;21105;-63
2020/12/05 03:09:33;;;;;;;24.12;11.15;;;;;;;5.10;73.70;101604.14;1824793;77;22115;-63
2020/12/05 03:12:00;;;;;;;20.57;12.47;;;;;;;5.08;73.78;101610.64;1823835;77;21073;-63
2020/12/05 03:14:28;;;;;;;20.97;11.53;;;;;;;5.14;73.53;101608.22;1823163;77;23595;-63
2020/12/05 03:16:57;;;;;;;19.92;12.35;;;;;;;5.12;73.60;101603.37;1825015;77;21220;-63
2020/12/05 03:19:25;;;;;;;18.40;10.78;;;;;;;5.13;73.59;101593.39;1823733;77;21153;-63
2020/12/05 03:21:53;;;;;;;20.20;10.53;;;;;;;5.23;73.26;101594.98;1825824;77;21078;-63
2020/12/05 03:24:20;;;;;;;24.00;11.78;;;;;;;5.14;73.40;101588.64;1825907;77;21590;-63
2020/12/05 03:26:48;;;;;;;17.00;10.75;;;;;;;5.21;73.22;101585.38;1828698;77;21293;-63
2020/12/05 03:29:16;;;;;;;23.02;12.75;;;;;;;5.23;73.18;101586.71;1823122;78;21606;-63
2020/12/05 03:34:20;;;;;;;17.48;11.12;;;;;;;5.29;73.04;101576.89;1832012;77;21470;-57
2020/12/05 03:36:48;;;;;;;20.90;10.53;;;;;;;5.27;73.04;101576.83;1824873;77;21110;-57
2020/12/05 03:39:16;;;;;;;20.55;11.83;;;;;;;5.29;73.01;101578.19;1826214;77;23558;-57
2020/12/05 03:41:44;;;;;;;15.90;9.75;;;;;;;5.20;73.25;101576.18;1825195;77;21518;-57
2020/12/05 03:44:12;;;;;;;17.48;10.55;;;;;;;5.19;73.28;101577.92;1827337;77;21608;-57
2020/12/05 03:46:39;;;;;;;17.77;10.75;;;;;;;5.08;73.63;101584.55;1825624;78;21155;-63
2020/12/05 03:49:07;;;;;;;18.55;9.48;;;;;;;5.08;73.70;101587.16;1827526;77;21545;-63
2020/12/05 03:51:34;;;;;;;21.40;11.63;;;;;;;5.10;73.50;101580.66;1826865;77;23420;-63
2020/12/05 03:54:02;;;;;;;15.90;10.40;;;;;;;5.12;73.50;101581.19;1825686;77;21601;-63
2020/12/05 03:56:30;;;;;;;18.62;11.05;;;;;;;5.19;73.29;101586.16;1846403;77;21102;-63
2020/12/05 03:58:58;;;;;;;18.07;11.10;;;;;;;5.19;73.31;101587.46;1776553;80;21970;-63
2020/12/05 04:01:25;;;;;;;18.32;9.80;;;;;;;5.05;73.65;101585.75;1761918;80;21098;-63
2020/12/05 04:03:53;;;;;;;18.57;11.22;;;;;;;5.01;73.82;101589.11;1799727;78;21360;-63
2020/12/05 04:06:21;;;;;;;21.12;11.30;;;;;;;5.02;73.88;101589.58;1795231;78;21131;-63
2020/12/05 04:08:49;;;;;;;20.20;11.75;;;;;;;5.04;73.77;101586.59;1795089;78;21691;-63
2020/12/05 04:11:16;;;;;;;15.75;10.35;;;;;;;5.03;73.79;101587.43;1795099;78;22121;-63
2020/12/05 04:13:44;;;;;;;20.77;10.80;;;;;;;5.03;73.75;101592.25;1789415;78;21471;-63
2020/12/05 04:16:12;;;;;;;19.70;11.40;;;;;;;5.01;73.82;101590.01;1789272;78;21197;-63
2020/12/05 04:18:39;;;;;;;20.82;11.10;;;;;;;5.01;73.85;101591.72;1796072;78;21618;-63
2020/12/05 04:21:07;;;;;;;20.30;10.40;;;;;;;5.02;73.84;101598.30;1803983;78;21564;-63
2020/12/05 04:23:34;;;;;;;21.50;11.65;;;;;;;5.02;73.80;101598.70;1789074;79;21542;-63
2020/12/05 04:26:02;;;;;;;20.27;11.50;;;;;;;4.99;73.87;101602.53;1790589;78;21150;-63
2020/12/05 04:28:30;;;;;;;21.02;11.93;;;;;;;5.04;73.82;101604.86;1789352;78;21201;-62
2020/12/05 04:30:58;;;;;;;24.23;12.55;;;;;;;4.96;74.15;101602.43;1788839;78;21611;-63
2020/12/05 04:33:25;;;;;;;19.45;11.73;;;;;;;4.96;74.11;101602.03;1785458;79;21657;-62
2020/12/05 04:35:53;;;;;;;21.12;12.70;;;;;;;4.87;74.28;101603.91;1789479;79;21130;-63
2020/12/05 04:38:21;;;;;;;21.62;11.35;;;;;;;4.87;74.24;101605.66;1760802;80;21520;-63
2020/12/05 04:40:48;;;;;;;23.32;11.57;;;;;;;4.85;74.28;101605.63;1751757;80;22343;-63
2020/12/05 04:43:16;;;;;;;19.48;12.05;;;;;;;4.84;74.29;101604.25;1756013;80;21629;-63
2020/12/05 04:45:43;;;;;;;19.50;11.90;;;;;;;4.82;74.28;101608.13;1801110;79;21561;-62
2020/12/05 04:48:11;;;;;;;21.05;12.33;;;;;;;4.81;74.28;101611.58;1759451;80;21635;-63
2020/12/05 04:50:38;;;;;;;20.80;10.75;;;;;;;4.79;74.33;101614.95;1755955;80;21590;-62
2020/12/05 04:53:12;;;;;;;29.00;12.80;;;;;;;4.78;74.50;101607.97;1785526;79;23436;-62
2020/12/05 04:55:41;;;;;;;22.17;12.28;;;;;;;4.79;74.72;101606.73;1783527;80;21162;-63
2020/12/05 04:58:21;;;;;;;29.82;13.62;;;;;;;4.73;74.71;101617.84;1784677;79;21135;-63
2020/12/05 05:00:54;;;;;;;23.07;11.57;;;;;;;4.70;74.84;101615.56;1783585;79;21112;-63
2020/12/05 05:03:23;;;;;;;23.07;12.23;;;;;;;4.78;74.52;101610.17;1782910;79;21481;-63
2020/12/05 05:05:53;;;;;;;19.17;11.80;;;;;;;4.73;74.70;101608.70;1785721;79;21373;-63
2020/12/05 05:08:25;;;;;;;23.15;12.65;;;;;;;4.74;74.83;101603.09;1775127;80;21819;-62
2020/12/05 05:11:08;;;;;;;24.60;12.70;;;;;;;4.71;74.80;101606.91;1756760;80;21573;-62
2020/12/05 05:14:02;;;;;;;24.37;11.50;;;;;;;4.68;74.85;101608.11;1755907;80;21206;-63
2020/12/05 05:16:29;;;;;;;23.45;12.25;;;;;;;4.67;74.93;101612.86;1791915;79;21530;-66
2020/12/05 05:19:17;;;;;;;22.55;12.00;;;;;;;4.65;74.95;101612.79;1806093;79;21169;-62
2020/12/05 05:21:46;;;;;;;21.12;12.50;;;;;;;4.63;74.96;101616.20;1772986;79;21167;-63
2020/12/05 05:24:16;;;;;;;24.15;13.40;;;;;;;4.65;74.97;101616.70;1789504;79;21497;-62
2020/12/05 05:26:47;;;;;;;23.38;13.93;;;;;;;4.69;74.93;101618.58;1781788;79;22060;-63
2020/12/05 05:29:27;;;;;;;22.15;12.45;;;;;;;4.71;74.85;101626.46;1785377;79;21482;-63
2020/12/05 05:34:34;;;;;;;26.80;13.98;;;;;;;4.71;75.00;101632.55;1807880;76;28098;-61
2020/12/05 05:37:15;;;;;;;21.85;13.90;;;;;;;4.71;74.95;101632.55;1769271;79;21606;-61
2020/12/05 05:39:56;;;;;;;29.32;14.30;;;;;;;4.76;74.82;101644.02;1784420;80;26669;-63
2020/12/05 05:42:31;;;;;;;25.52;13.80;;;;;;;4.78;74.75;101649.70;1786342;79;21549;-63
2020/12/05 05:45:25;;;;;;;24.07;13.93;;;;;;;4.79;74.64;101652.38;1783631;80;21141;-65
2020/12/05 05:48:02;;;;;;;24.67;13.18;;;;;;;4.79;74.72;101656.30;1772031;79;21102;-56
2020/12/05 05:50:31;;;;;;;22.90;13.88;;;;;;;4.79;74.62;101654.09;1783373;79;21597;-57
2020/12/05 05:53:05;;;;;;;20.20;12.90;;;;;;;4.88;74.45;101659.17;1785778;78;21171;-63
2020/12/05 05:55:44;;;;;;;20.97;13.03;;;;;;;4.96;74.29;101659.44;1886932;76;28139;-62
2020/12/05 05:58:11;;;;;;;25.23;13.45;;;;;;;4.96;74.19;101661.14;1858673;77;21066;-63
2020/12/05 06:00:46;;;;;;;22.22;14.25;;;;;;;4.91;74.26;101663.18;1804385;78;22232;-64
2020/12/05 06:03:29;;;;;;;22.32;13.68;;;;;;;4.99;74.00;101662.14;1804028;78;21604;-64
2020/12/05 06:05:58;;;;;;;22.82;13.20;;;;;;;4.95;74.15;101664.59;1730053;78;21532;-64
2020/12/05 06:08:28;;;;;;;22.62;12.90;;;;;;;4.97;74.09;101664.22;1778496;80;21200;-64
2020/12/05 06:11:00;;;;;;;25.37;14.13;;;;;;;5.01;73.91;101658.26;1800278;78;21056;-63
2020/12/05 06:13:30;;;;;;;25.68;13.08;;;;;;;4.95;74.05;101656.76;1817215;78;22251;-64
2020/12/05 06:15:59;;;;;;;27.58;13.13;;;;;;;4.91;74.18;101660.58;1819335;78;21093;-63
2020/12/05 06:18:27;;;;;;;26.55;12.53;;;;;;;4.87;74.24;101656.09;1778763;79;21127;-64
2020/12/05 06:20:55;;;;;;;24.72;13.15;;;;;;;4.93;74.12;101664.55;1792809;80;21145;-64
2020/12/05 06:23:41;;;;;;;26.48;13.55;;;;;;;4.94;73.97;101657.59;1785134;79;21628;-64
2020/12/05 06:26:09;;;;;;;26.17;12.68;;;;;;;4.98;73.76;101659.47;1786906;79;21194;-63
2020/12/05 06:28:39;;;;;;;25.70;12.68;;;;;;;4.98;73.63;101662.08;1784396;78;21117;-63
2020/12/05 06:31:06;;;;;;;;;;;;;;;5.00;73.63;101662.61;1778050;80;21611;-63
2020/12/05 06:33:42;;;;;;;20.77;12.80;;;;;;;5.02;73.53;101660.03;1767189;79;20214;-62
2020/12/05 06:36:33;;;;;;;23.77;14.00;;;;;;;4.99;73.66;101658.62;1784827;79;21074;-63
2020/12/05 06:39:10;;;;;;;25.62;12.45;;;;;;;4.97;73.74;101662.52;1789672;80;22142;-62
2020/12/05 06:41:46;;;;;;;24.90;13.75;;;;;;;4.99;73.55;101658.62;1790704;80;21639;-63
2020/12/05 06:44:20;;;;;;;25.60;12.55;;;;;;;5.09;73.33;101658.48;1790488;80;21117;-64
2020/12/05 06:46:58;;;;;;;22.98;12.80;;;;;;;5.16;73.10;101658.74;1785442;79;21059;-63
2020/12/05 06:49:45;;;;;;;25.27;13.78;;;;;;;5.09;73.64;101668.52;1781296;79;21585;-62
2020/12/05 06:52:30;;;;;;;25.30;12.03;;;;;;;5.09;73.70;101666.31;1776776;80;21417;-63
2020/12/05 06:55:12;;;;;;;23.18;13.03;;;;;;;5.08;73.48;101665.88;1783924;79;21172;-63
2020/12/05 06:57:42;;;;;;;;;;;;;;;5.15;73.18;101664.80;1750192;79;21600;-63
2020/12/05 07:00:22;;;;;;;22.20;11.83;;;;;;;5.03;73.56;101656.59;1750528;79;20248;-63
2020/12/05 07:03:08;;;;;;;23.12;13.62;;;;;;;4.96;73.79;101662.45;1778753;79;21109;-63
2020/12/05 07:05:46;;;;;;;23.98;13.00;;;;;;;4.95;73.80;101661.58;1779936;80;22605;-63
2020/12/05 07:08:30;;;;;;;23.98;13.72;;;;;;;5.00;73.66;101656.48;1772661;78;21151;-64
2020/12/05 07:11:07;;;;;;;26.62;14.03;;;;;;;4.92;73.92;101656.26;1793447;79;21588;-63
2020/12/05 07:13:42;;;;;;;22.73;13.13;;;;;;;4.92;73.87;101656.26;1786911;79;21610;-63
2020/12/05 07:16:25;;;;;;;23.22;13.35;;;;;;;4.88;73.92;101657.86;1772830;78;21125;-64
2020/12/05 07:18:55;;;;;;;18.05;12.03;;;;;;;4.88;73.98;101649.17;1746126;80;21200;-63
2020/12/05 07:21:24;;;;;;;19.48;11.73;;;;;;;4.90;74.04;101657.94;1781991;79;21111;-64
2020/12/05 07:23:52;;;;;;;20.77;11.93;;;;;;;4.80;74.31;101667.20;1758208;80;21153;-63
2020/12/05 07:26:19;;;;;;;23.05;12.80;;;;;;;4.81;74.51;101668.06;1760635;80;21622;-63
2020/12/05 07:28:49;;;;;;;22.73;12.33;;;;;;;4.81;74.97;101661.55;1752057;79;21604;-63
2020/12/05 07:31:18;;;;;;;19.65;12.40;;;;;;;4.80;75.17;101666.30;1785066;80;21374;-63
2020/12/05 07:33:46;;;;;;;25.48;12.90;;;;;;;4.85;75.27;101672.55;1767719;79;21133;-63
2020/12/05 07:36:15;;;;;;;22.05;13.22;;;;;;;4.86;75.18;101667.37;1767651;78;21132;-64
2020/12/05 07:38:45;;;;;;;19.98;12.60;;;;;;;4.87;75.24;101679.58;1762752;79;21181;-64
2020/12/05 07:41:17;;;;;;;28.15;14.95;;;;;;;4.86;75.18;101689.97;1769992;80;21143;-64
2020/12/05 07:43:45;;;;;;;19.55;12.50;;;;;;;4.86;75.24;101692.15;1781527;79;21213;-63
2020/12/05 07:46:14;;;;;;;18.73;11.97;;;;;;;4.87;75.20;101699.14;1787183;79;21179;-63
2020/12/05 07:48:42;;;;;;;18.48;11.03;;;;;;;4.87;75.07;101697.84;1752832;80;21153;-63
2020/12/05 07:51:14;;;;;;;17.05;11.00;;;;;;;4.90;74.98;101700.98;1777120;78;21535;-63
2020/12/05 07:53:42;;;;;;;18.77;10.85;;;;;;;4.89;74.76;101696.16;1764461;79;21524;-63
2020/12/05 07:56:21;;;;;;;20.15;11.40;;;;;;;4.86;74.82;101694.76;1768625;80;21138;-63
2020/12/05 07:58:54;;;;;;;19.30;11.37;;;;;;;4.85;74.83;101700.84;1754040;80;21523;-64
2020/12/05 08:01:52;;;;;;;18.98;11.10;;;;;;;4.81;75.00;101705.49;1766245;80;21570;-63
2020/12/05 08:04:37;;;;;;;18.37;11.18;;;;;;;4.85;74.86;101701.25;1787450;80;21603;-63
2020/12/05 08:07:09;;;;;;;19.82;11.48;;;;;;;4.85;74.75;101703.45;1750135;81;21112;-63
2020/12/05 08:09:38;;;;;;;16.57;10.35;;;;;;;4.81;75.09;101704.59;1760756;81;21944;-63
2020/12/05 08:12:14;;;;;;;19.15;10.93;;;;;;;4.84;75.02;101707.30;1748410;80;21610;-63
2020/12/05 08:14:42;;;;;;;18.57;10.30;;;;;;;4.88;74.88;101703.95;1770562;79;21181;-63
2020/12/05 08:17:11;;;;;;;18.80;11.55;;;;;;;4.90;74.70;101704.46;1777983;80;21067;-63
2020/12/05 08:19:42;;;;;;;18.65;12.37;;;;;;;4.87;74.94;101703.48;1769093;80;21465;-63
2020/12/05 08:22:10;;;;;;;29.63;12.78;;;;;;;4.88;74.98;101711.34;1760323;81;23526;-63
2020/12/05 08:24:51;;;;;;;19.02;10.30;;;;;;;4.89;74.98;101707.91;1775471;80;21082;-63
2020/12/05 08:27:19;;;;;;;19.98;11.53;;;;;;;4.90;75.04;101710.98;1740743;80;21115;-64
2020/12/05 08:29:48;;;;;;;16.93;9.40;;;;;;;4.91;75.00;101713.19;1765860;80;21439;-64
2020/12/05 08:32:20;;;;;;;16.60;10.88;;;;;;;4.89;75.04;101718.78;1766852;80;21590;-63
2020/12/05 08:34:48;;;;;;;21.70;10.90;;;;;;;4.94;74.97;101718.51;1744213;80;22097;-64
2020/12/05 08:37:41;;;;;;;18.98;12.07;;;;;;;4.98;74.96;101712.95;1746832;80;21578;-63
2020/12/05 08:40:08;;;;;;;16.97;10.93;;;;;;;4.99;74.94;101710.81;1686310;83;21620;-63
2020/12/05 08:42:36;;;;;;;19.23;11.12;;;;;;;5.05;74.78;101712.33;1689001;83;21486;-63
2020/12/05 08:45:16;;;;;;;20.20;10.88;;;;;;;5.08;74.68;101701.98;1675326;85;21189;-64
2020/12/05 08:47:51;;;;;;;17.05;10.30;;;;;;;5.05;74.73;101705.40;1677596;83;21228;-65
2020/12/05 08:50:26;;;;;;;19.60;11.05;;;;;;;5.08;74.57;101703.29;1665262;85;21094;-63
2020/12/05 08:53:01;;;;;;;15.78;10.68;;;;;;;5.00;74.82;101699.55;1674787;84;21233;-63
2020/12/05 08:55:29;;;;;;;17.00;11.08;;;;;;;4.99;74.90;101703.89;1670851;85;21498;-64
2020/12/05 08:58:04;;;;;;;16.42;10.08;;;;;;;4.98;73.90;101701.22;1663651;84;21158;-64
2020/12/05 09:00:34;;;;;;;21.93;10.85;;;;;;;4.82;74.13;101701.14;1666003;85;21475;-63
2020/12/05 09:03:04;;;;;;;17.30;10.10;;;;;;;4.79;74.44;101705.86;1664622;85;21695;-63
2020/12/05 09:05:32;;;;;;;17.23;9.65;;;;;;;4.80;74.80;101697.59;1667535;85;21149;-64
2020/12/05 09:08:00;;;;;;;14.98;9.90;;;;;;;4.88;74.72;101702.66;1674523;83;21677;-63
2020/12/05 09:10:29;;;;;;;18.42;11.35;;;;;;;4.81;74.90;101696.36;1669453;85;21165;-63
2020/12/05 09:13:05;;;;;;;16.83;10.53;;;;;;;4.88;74.80;101693.52;1679867;84;21214;-63
2020/12/05 09:15:33;;;;;;;17.27;10.75;;;;;;;4.93;74.69;101686.73;1669087;85;21573;-64
2020/12/05 09:18:01;;;;;;;17.05;11.63;;;;;;;4.95;74.55;101682.85;1659928;84;21114;-64
2020/12/05 09:20:29;;;;;;;19.07;10.08;;;;;;;5.08;74.22;101682.84;1681735;85;21764;-64
2020/12/05 09:22:57;;;;;;;20.27;12.05;;;;;;;5.08;74.18;101685.02;1671758;83;21828;-64
2020/12/05 09:25:34;;;;;;;19.30;11.30;;;;;;;5.08;74.18;101690.67;1681743;85;21218;-65
2020/12/05 09:28:11;;;;;;;17.62;10.15;;;;;;;5.18;73.92;101694.92;1658463;85;21173;-63
2020/12/05 09:30:39;;;;;;;20.00;11.03;;;;;;;5.10;74.02;101686.36;1643026;85;21105;-63
2020/12/05 09:33:15;;;;;;;19.30;10.48;;;;;;;5.12;73.99;101687.30;1658866;85;21171;-63
2020/12/05 09:35:43;;;;;;;18.52;11.45;;;;;;;5.13;73.89;101689.97;1655539;85;21608;-63
2020/12/05 09:38:11;;;;;;;19.80;10.85;;;;;;;5.15;73.90;101680.47;1671302;84;22421;-63
2020/12/05 09:40:40;;;;;;;19.90;11.88;;;;;;;5.20;73.80;101680.59;1727048;82;21116;-63
2020/12/05 09:43:08;;;;;;;20.12;11.33;;;;;;;5.23;73.69;101679.82;1720564;81;21476;-63
2020/12/05 09:45:35;;;;;;;21.60;11.80;;;;;;;5.30;73.49;101677.87;1703637;82;21168;-64
2020/12/05 09:48:03;;;;;;;19.75;11.57;;;;;;;5.34;73.32;101683.62;1709800;81;21525;-64
2020/12/05 09:50:31;;;;;;;18.57;10.75;;;;;;;5.32;73.31;101675.75;1716230;81;23538;-63
2020/12/05 09:52:59;;;;;;;16.27;10.20;;;;;;;5.32;73.29;101675.75;1721435;82;21207;-64
2020/12/05 09:55:27;;;;;;;17.75;10.48;;;;;;;5.36;73.27;101672.40;1708944;81;21165;-63
2020/12/05 09:57:55;;;;;;;19.32;11.15;;;;;;;5.30;73.37;101669.59;1719489;82;21128;-63
2020/12/05 10:00:23;;;;;;;18.92;11.25;;;;;;;5.27;73.47;101672.11;1709599;81;21147;-64
2020/12/05 10:02:52;;;;;;;18.00;10.28;;;;;;;5.28;73.57;101669.97;1711159;81;22260;-63
2020/12/05 10:05:20;;;;;;;19.60;11.50;;;;;;;5.20;74.05;101670.16;1703896;81;21128;-64
2020/12/05 10:07:49;;;;;;;18.48;10.98;;;;;;;5.16;74.33;101672.20;1706869;81;21116;-63
2020/12/05 10:10:17;;;;;;;18.40;11.30;;;;;;;5.16;74.40;101670.89;1704900;84;21156;-63
2020/12/05 10:12:45;;;;;;;18.40;10.88;;;;;;;5.19;74.41;101672.30;1703812;81;21196;-63
2020/12/05 10:15:14;;;;;;;21.62;11.83;;;;;;;5.15;74.49;101666.51;1703767;83;22748;-64
2020/12/05 10:17:42;;;;;;;19.12;11.10;;;;;;;5.18;74.45;101664.00;1704597;81;21182;-64
2020/12/05 10:20:10;;;;;;;20.85;12.33;;;;;;;5.15;74.43;101668.72;1714851;81;21579;-63
2020/12/05 10:22:38;;;;;;;21.42;12.70;;;;;;;5.19;74.45;101669.69;1720912;82;21184;-63
2020/12/05 10:25:07;;;;;;;23.27;11.33;;;;;;;5.12;74.53;101667.72;1705563;83;21631;-63
2020/12/05 10:27:35;;;;;;;21.35;10.75;;;;;;;5.12;74.54;101675.55;1719028;81;22274;-64
2020/12/05 10:30:03;;;;;;;20.02;10.98;;;;;;;5.17;74.26;101670.05;1704521;81;21701;-63
2020/12/05 10:32:30;;;;;;;23.67;11.70;;;;;;;5.11;74.46;101666.84;1706160;81;21615;-63
2020/12/05 10:34:58;;;;;;;19.05;10.63;;;;;;;5.04;74.83;101664.88;1704551;82;21531;-63
2020/12/05 10:37:25;;;;;;;18.37;10.88;;;;;;;5.04;74.95;101671.41;1716007;82;21147;-63
2020/12/05 10:39:53;;;;;;;22.13;12.07;;;;;;;5.04;75.02;101667.49;1708862;81;22535;-63
2020/12/05 10:42:20;;;;;;;20.15;11.33;;;;;;;5.09;75.04;101670.23;1705963;81;21129;-64
2020/12/05 10:44:50;;;;;;;19.62;10.53;;;;;;;5.20;74.82;101672.77;1700108;81;21159;-63
2020/12/05 10:47:17;;;;;;;22.02;11.22;;;;;;;5.27;74.49;101677.34;1706000;82;21635;-64
2020/12/05 10:49:45;;;;;;;30.52;13.43;;;;;;;5.31;74.20;101675.69;1705796;81;21587;-64
2020/12/05 10:52:12;;;;;;;19.30;11.12;;;;;;;5.32;74.18;101668.32;1709528;81;22363;-64
2020/12/05 10:54:40;;;;;;;22.15;10.98;;;;;;;5.26;74.21;101673.39;1705586;81;21132;-64
2020/12/05 10:57:08;;;;;;;20.23;9.98;;;;;;;5.20;74.16;101669.75;1708875;81;21548;-63
2020/12/05 11:02:12;;;;;;;27.43;16.73;;;;;;;5.08;74.48;101662.84;1847600;75;27745;-63
2020/12/05 11:04:40;;;;;;;19.40;12.05;;;;;;;5.12;74.19;101665.11;1849773;77;21505;-63
2020/12/05 11:07:08;;;;;;;19.32;10.68;;;;;;;5.13;74.16;101666.88;1846726;77;21603;-62
2020/12/05 11:09:36;;;;;;;19.98;10.50;;;;;;;5.17;73.97;101670.05;1830813;77;21723;-62
2020/12/05 11:12:03;;;;;;;21.20;12.00;;;;;;;5.19;73.82;101669.69;1833051;77;21548;-62
2020/12/05 11:14:31;;;;;;;21.50;11.85;;;;;;;5.10;73.98;101675.52;1830030;77;21142;-62
2020/12/05 11:16:59;;;;;;;18.27;10.48;;;;;;;5.09;73.89;101677.66;1848151;77;21138;-62
2020/12/05 11:19:27;;;;;;;19.15;10.55;;;;;;;5.04;73.86;101680.14;1826847;77;21363;-62
2020/12/05 11:21:55;;;;;;;18.57;11.10;;;;;;;5.05;73.84;101677.09;1827784;77;21165;-62
2020/12/05 11:24:24;;;;;;;18.60;11.05;;;;;;;5.04;73.93;101680.54;1846982;77;21003;-62
2020/12/05 11:26:54;;;;;;;18.62;10.90;;;;;;;5.03;73.89;101672.24;1839628;77;21057;-63
2020/12/05 11:29:21;;;;;;;16.67;9.08;;;;;;;4.99;73.93;101675.19;1858067;77;21599;-63
2020/12/05 11:31:49;;;;;;;21.97;11.03;;;;;;;5.00;73.90;101678.67;1817617;78;21354;-62
2020/12/05 11:34:17;;;;;;;17.60;9.88;;;;;;;4.98;73.75;101678.63;1791769;78;21609;-63
2020/12/05 11:36:46;;;;;;;15.28;8.15;;;;;;;4.99;73.69;101681.71;1801007;78;21173;-63
2020/12/05 11:39:13;;;;;;;18.48;9.55;;;;;;;4.97;73.42;101684.69;1815712;78;21093;-62
2020/12/05 11:41:42;;;;;;;16.90;10.32;;;;;;;4.87;73.76;101692.62;1819037;78;21580;-62